Time;durP1;ratioP1;P1;durP2;ratioP2;P2;SDS_P1;SDS_P2;PMS_P1;PMS_P2;Temp;Humidity;BMP_temperature;BMP_pressure;BME280_temperature;BME280_humidity;BME280_pressure;Samples;Min_cycle;Max_cycle;Signal;HPM_P1;HPM_P2
2022/06/07 00:00:41;;;;;;;12.13;7.47;;;;;;;11.62;100.00;101032.13;4906888;29;20667;-77
2022/06/07 00:03:09;;;;;;;14.95;8.80;;;;;;;11.59;100.00;101034.78;4877810;28;20055;-78
2022/06/07 00:05:40;;;;;;;13.35;8.43;;;;;;;11.57;100.00;101021.59;4902987;29;20052;-78
2022/06/07 00:08:12;;;;;;;11.60;8.50;;;;;;;11.57;100.00;101026.88;4911056;29;20512;-78
2022/06/07 00:10:41;;;;;;;11.90;7.38;;;;;;;11.58;100.00;101025.97;4907654;29;20056;-77
2022/06/07 00:13:10;;;;;;;15.05;8.30;;;;;;;11.58;100.00;101017.19;4905447;29;20056;-78
2022/06/07 00:15:40;;;;;;;12.40;8.53;;;;;;;11.58;100.00;101015.41;4889676;29;20040;-77
2022/06/07 00:18:10;;;;;;;17.30;8.48;;;;;;;11.59;100.00;101005.75;4901236;29;20044;-78
2022/06/07 00:20:42;;;;;;;16.38;9.15;;;;;;;11.57;100.00;101004.84;4879698;29;20170;-77
2022/06/07 00:23:15;;;;;;;16.10;8.57;;;;;;;11.54;100.00;101007.50;4891885;29;20040;-77
2022/06/07 00:25:46;;;;;;;17.55;8.68;;;;;;;11.56;100.00;101003.09;4906485;29;20048;-77
2022/06/07 00:28:15;;;;;;;11.93;7.57;;;;;;;11.53;100.00;100998.72;4907314;29;20048;-77
2022/06/07 00:30:44;;;;;;;12.82;7.53;;;;;;;11.55;100.00;100994.31;4896694;29;20040;-77
2022/06/07 00:33:14;;;;;;;14.75;6.95;;;;;;;11.55;100.00;100989.03;4901666;29;20048;-77
2022/06/07 00:35:45;;;;;;;10.48;6.90;;;;;;;11.54;100.00;100989.91;4885955;29;20414;-78
2022/06/07 00:38:14;;;;;;;14.48;7.40;;;;;;;11.55;100.00;100988.13;4933709;28;20054;-78
2022/06/07 00:40:43;;;;;;;11.57;7.55;;;;;;;11.55;100.00;100980.22;4924434;28;20038;-76
2022/06/07 00:43:11;;;;;;;8.88;6.97;;;;;;;11.54;100.00;100981.09;4894484;29;20047;-78
2022/06/07 00:45:40;;;;;;;11.73;6.80;;;;;;;11.52;100.00;100974.06;4882607;29;20047;-77
2022/06/07 00:48:09;;;;;;;8.75;6.30;;;;;;;11.52;100.00;100974.06;4891589;29;20064;-78
2022/06/07 00:50:54;;;;;;;12.32;6.68;;;;;;;11.51;100.00;100980.22;4844871;29;20322;-77
2022/06/07 00:53:28;;;;;;;9.05;6.60;;;;;;;11.50;100.00;100975.81;4889408;29;20063;-77
2022/06/07 00:56:06;;;;;;;9.63;6.50;;;;;;;11.50;100.00;100974.94;4906049;29;20118;-77
2022/06/07 00:58:36;;;;;;;14.75;7.63;;;;;;;11.51;100.00;100967.03;4902537;29;20416;-77
2022/06/07 01:01:07;;;;;;;12.00;7.65;;;;;;;11.49;100.00;100968.78;4924861;29;20425;-78
2022/06/07 01:03:39;;;;;;;15.10;8.00;;;;;;;11.51;100.00;100959.13;4887711;29;20243;-78
2022/06/07 01:11:44;;;;;;;11.35;7.93;;;;;;;11.52;100.00;100941.50;4920392;29;20509;-78
2022/06/07 01:14:14;;;;;;;14.93;8.32;;;;;;;11.52;100.00;100947.66;4903787;29;20056;-79
2022/06/07 01:16:43;;;;;;;10.80;7.55;;;;;;;11.52;100.00;100923.03;4900587;29;20040;-78
2022/06/07 01:19:12;;;;;;;14.20;7.85;;;;;;;11.52;100.00;100937.09;4881476;29;20043;-78
2022/06/07 01:21:43;;;;;;;16.03;8.80;;;;;;;11.54;100.00;100937.13;4866672;29;20159;-78
2022/06/07 01:24:13;;;;;;;15.32;8.32;;;;;;;11.55;100.00;100933.63;4898763;29;20044;-78
2022/06/07 01:26:46;;;;;;;12.52;8.10;;;;;;;11.57;100.00;100945.03;4906794;29;20067;-78
2022/06/07 01:29:15;;;;;;;14.27;8.00;;;;;;;11.57;100.00;100938.88;4919444;29;20045;-78
2022/06/07 01:31:44;;;;;;;12.15;7.93;;;;;;;11.59;100.00;100931.84;4904371;29;20047;-78
2022/06/07 01:34:16;;;;;;;8.98;7.28;;;;;;;11.57;100.00;100934.50;4896237;29;20052;-78
2022/06/07 01:36:45;;;;;;;12.93;6.97;;;;;;;11.57;100.00;100926.56;4863692;29;20432;-78
2022/06/07 01:42:00;;;;;;;13.80;6.70;;;;;;;11.57;100.00;100916.00;4909795;29;20386;-78
2022/06/07 01:44:37;;;;;;;13.38;7.50;;;;;;;11.57;100.00;100925.66;4905091;29;20647;-78
2022/06/07 01:47:09;;;;;;;12.15;7.15;;;;;;;11.60;100.00;100920.41;4924578;29;20416;-79
2022/06/07 01:49:43;;;;;;;13.20;7.60;;;;;;;11.60;100.00;100912.47;4911294;29;20460;-78
2022/06/07 01:52:13;;;;;;;15.27;7.85;;;;;;;11.61;100.00;100919.53;4879361;29;20056;-78
2022/06/07 01:54:44;;;;;;;14.50;8.02;;;;;;;11.63;100.00;100913.38;4879664;29;20616;-78
2022/06/07 01:57:12;;;;;;;9.45;7.25;;;;;;;11.62;100.00;100908.94;4903372;29;20040;-79
2022/06/07 01:59:41;;;;;;;11.57;8.15;;;;;;;11.63;100.00;100910.72;4905104;29;20660;-77
2022/06/07 02:02:18;;;;;;;9.75;7.40;;;;;;;11.65;100.00;100905.44;4891799;29;20531;-78
2022/06/07 02:04:47;;;;;;;12.48;7.32;;;;;;;11.65;100.00;100897.53;4900370;29;20065;-78
2022/06/07 02:07:19;;;;;;;12.20;7.70;;;;;;;11.65;100.00;100895.75;4874117;29;20039;-78
2022/06/07 02:09:53;;;;;;;14.45;8.13;;;;;;;11.65;100.00;100906.31;4899812;29;20044;-78
2022/06/07 02:12:22;;;;;;;13.25;8.05;;;;;;;11.65;100.00;100894.91;4890567;29;20051;-77
2022/06/07 02:14:51;;;;;;;17.08;9.20;;;;;;;11.66;100.00;100891.34;4877151;29;20055;-77
2022/06/07 02:17:19;;;;;;;11.75;7.40;;;;;;;11.65;100.00;100886.97;4907943;29;20048;-78
2022/06/07 02:20:01;;;;;;;13.20;8.23;;;;;;;11.66;100.00;100886.97;4913198;29;20051;-78
2022/06/07 02:22:30;;;;;;;11.15;8.48;;;;;;;11.68;100.00;100882.56;4881741;29;20075;-78
2022/06/07 02:24:58;;;;;;;11.95;7.55;;;;;;;11.68;100.00;100882.56;4889992;29;20052;-78
2022/06/07 02:27:27;;;;;;;12.45;8.35;;;;;;;11.68;100.00;100879.94;4896939;29;20032;-77
2022/06/07 02:29:55;;;;;;;8.52;7.57;;;;;;;11.67;100.00;100883.44;4907475;29;20056;-78
2022/06/07 02:32:28;;;;;;;12.20;8.13;;;;;;;11.69;100.00;100886.09;4902972;29;20055;-78
2022/06/07 02:34:58;;;;;;;14.63;8.07;;;;;;;11.70;100.00;100885.19;4908944;29;20052;-78
2022/06/07 02:37:31;;;;;;;10.35;8.18;;;;;;;11.74;100.00;100878.16;4863732;29;20162;-78
2022/06/07 02:39:59;;;;;;;9.48;8.20;;;;;;;11.75;100.00;100878.16;4903062;29;20055;-78
2022/06/07 02:42:29;;;;;;;14.30;8.95;;;;;;;11.74;100.00;100879.06;4910797;29;20041;-77
2022/06/07 02:44:58;;;;;;;10.10;7.50;;;;;;;11.76;100.00;100866.72;4923697;29;20540;-77
2022/06/07 02:47:27;;;;;;;11.20;8.20;;;;;;;11.77;100.00;100867.59;4902845;29;20297;-78
2022/06/07 02:50:01;;;;;;;10.30;7.53;;;;;;;11.77;100.00;100867.59;4910278;29;20043;-78
2022/06/07 02:52:33;;;;;;;13.40;8.55;;;;;;;11.78;100.00;100864.97;4887391;29;20262;-78
2022/06/07 02:55:19;;;;;;;9.50;7.93;;;;;;;11.81;100.00;100869.34;4876069;29;20405;-79
2022/06/07 02:57:50;;;;;;;13.50;7.90;;;;;;;11.80;100.00;100857.03;4898344;29;20040;-77
2022/06/07 03:00:23;;;;;;;11.38;7.93;;;;;;;11.81;100.00;100858.78;4920179;29;20048;-77
2022/06/07 03:02:52;;;;;;;15.98;8.00;;;;;;;11.81;100.00;100859.66;4890430;29;20056;-78
2022/06/07 03:05:22;;;;;;;11.63;7.32;;;;;;;11.81;100.00;100859.66;4903914;29;20044;-77
2022/06/07 03:07:58;;;;;;;12.60;8.02;;;;;;;11.82;100.00;100866.72;4878924;29;20056;-78
2022/06/07 03:10:26;;;;;;;12.50;8.95;;;;;;;11.82;100.00;100866.72;4890314;29;20040;-78
2022/06/07 03:12:55;;;;;;;13.77;8.93;;;;;;;11.82;100.00;100864.06;4899589;29;20044;-77
2022/06/07 03:15:26;;;;;;;14.70;8.75;;;;;;;11.82;100.00;100857.91;4919871;29;20044;-78
2022/06/07 03:17:57;;;;;;;;;;;;;;;11.79;100.00;100868.47;4908361;29;20041;-78
2022/06/07 03:20:33;;;;;;;11.68;7.68;;;;;;;11.79;100.00;100865.84;4899645;29;20220;-78
2022/06/07 03:23:03;;;;;;;16.52;7.88;;;;;;;11.79;100.00;100858.78;4897269;29;20032;-77
2022/06/07 03:25:32;;;;;;;13.45;9.43;;;;;;;11.80;100.00;100865.84;4909117;29;20613;-77
2022/06/07 03:28:05;;;;;;;16.08;9.68;;;;;;;11.80;100.00;100865.84;4875196;29;20033;-78
2022/06/07 03:30:34;;;;;;;11.93;9.00;;;;;;;11.79;100.00;100879.91;4906865;29;20264;-78
2022/06/07 03:33:04;;;;;;;13.73;8.90;;;;;;;11.78;100.00;100870.25;4910946;29;20162;-77
2022/06/07 03:35:33;;;;;;;14.77;9.55;;;;;;;11.80;100.00;100859.69;4913804;29;20052;-77
2022/06/07 03:38:04;;;;;;;20.30;9.45;;;;;;;11.79;100.00;100850.00;4913503;29;20056;-77
2022/06/07 03:40:44;;;;;;;;;;;;;;;11.77;100.00;100852.63;4881757;29;20566;-78
2022/06/07 03:43:20;;;;;;;14.18;9.65;;;;;;;11.78;100.00;100858.81;4890035;29;19923;-78
2022/06/07 03:45:49;;;;;;;17.58;11.65;;;;;;;11.77;100.00;100857.03;4906216;29;20079;-78
2022/06/07 03:48:18;;;;;;;15.45;9.80;;;;;;;11.76;100.00;100855.25;4924326;29;20055;-77
2022/06/07 03:50:49;;;;;;;17.35;9.80;;;;;;;11.76;100.00;100860.53;4891516;29;20044;-78
2022/06/07 03:53:19;;;;;;;14.90;9.45;;;;;;;11.76;100.00;100850.88;4893708;29;20044;-78
2022/06/07 03:55:48;;;;;;;11.93;9.13;;;;;;;11.77;100.00;100862.31;4870542;29;20044;-79
2022/06/07 03:58:21;;;;;;;13.35;9.18;;;;;;;11.76;100.00;100850.88;4914710;29;20040;-77
2022/06/07 04:00:54;;;;;;;14.07;8.75;;;;;;;11.75;100.00;100859.69;4908273;29;20047;-79
2022/06/07 04:03:24;;;;;;;18.25;9.00;;;;;;;11.75;100.00;100856.16;4906680;29;20048;-77
2022/06/07 04:05:53;;;;;;;10.13;8.02;;;;;;;11.77;100.00;100862.31;4894853;29;20048;-79
2022/06/07 04:08:27;;;;;;;12.57;8.13;;;;;;;11.76;100.00;100865.81;4898949;29;20381;-77
2022/06/07 04:10:59;;;;;;;17.48;8.90;;;;;;;11.76;100.00;100864.09;4910778;29;20051;-78
2022/06/07 04:13:56;;;;;;;17.55;9.50;;;;;;;11.75;100.00;100866.72;4908708;29;20501;-78
2022/06/07 04:16:28;;;;;;;11.30;9.15;;;;;;;11.76;100.00;100869.38;4900346;29;20044;-78
2022/06/07 04:19:02;;;;;;;14.50;9.85;;;;;;;11.76;100.00;100865.81;4924622;29;20056;-79
2022/06/07 04:21:32;;;;;;;12.68;9.15;;;;;;;11.73;100.00;100873.78;4922030;29;20746;-78
2022/06/07 04:24:19;;;;;;;12.20;8.65;;;;;;;11.69;100.00;100870.25;4908275;29;20040;-78
2022/06/07 04:26:48;;;;;;;14.55;9.07;;;;;;;11.66;100.00;100871.16;4869940;29;20040;-78
2022/06/07 04:29:16;;;;;;;13.05;9.02;;;;;;;11.62;100.00;100872.00;4903087;29;20051;-79
2022/06/07 04:31:45;;;;;;;15.82;9.90;;;;;;;11.60;100.00;100881.69;4902990;29;20333;-78
2022/06/07 04:34:18;;;;;;;15.57;9.55;;;;;;;11.59;100.00;100871.16;4910167;29;20408;-78
2022/06/07 04:36:47;;;;;;;13.45;9.05;;;;;;;11.58;100.00;100875.53;4910924;29;20289;-78
2022/06/07 04:39:20;;;;;;;11.30;9.25;;;;;;;11.55;100.00;100875.56;4915691;29;20048;-78
2022/06/07 04:41:58;;;;;;;17.38;10.20;;;;;;;11.55;100.00;100865.00;4878259;29;20040;-77
2022/06/07 04:44:34;;;;;;;13.32;8.80;;;;;;;11.54;100.00;100871.13;4905582;29;20425;-78
2022/06/07 04:47:03;;;;;;;12.73;8.50;;;;;;;11.50;100.00;100879.94;4897761;29;20056;-79
2022/06/07 04:49:32;;;;;;;13.93;9.73;;;;;;;11.50;100.00;100887.84;4905275;29;20170;-78
2022/06/07 04:52:01;;;;;;;11.73;9.60;;;;;;;11.50;100.00;100882.56;4909660;29;20063;-77
2022/06/07 04:54:50;;;;;;;15.80;10.52;;;;;;;11.48;100.00;100900.19;4905317;29;20497;-77
2022/06/07 04:57:22;;;;;;;15.77;8.93;;;;;;;11.43;100.00;100888.72;4862378;29;20051;-79
2022/06/07 04:59:51;;;;;;;16.08;10.02;;;;;;;11.35;100.00;100885.22;4912149;29;20037;-79
2022/06/07 05:02:21;;;;;;;13.48;8.82;;;;;;;11.28;100.00;100877.28;4896366;29;20059;-78
2022/06/07 05:04:51;;;;;;;13.13;9.05;;;;;;;11.25;100.00;100868.50;4899440;29;20052;-79
2022/06/07 05:07:23;;;;;;;13.40;8.73;;;;;;;11.19;100.00;100865.84;4915411;29;20807;-78
2022/06/07 05:10:00;;;;;;;12.10;7.78;;;;;;;11.13;100.00;100872.00;4899230;29;20039;-79
2022/06/07 05:12:36;;;;;;;11.70;6.30;;;;;;;11.07;100.00;100877.25;4881597;29;20059;-79
2022/06/07 05:15:06;;;;;;;14.13;7.13;;;;;;;11.07;100.00;100872.00;4900855;29;20048;-79
2022/06/07 05:18:09;;;;;;;8.43;6.00;;;;;;;11.09;100.00;100867.59;4854291;29;20052;-79
2022/06/07 05:20:40;;;;;;;15.90;6.78;;;;;;;11.09;100.00;100873.75;4888728;29;20281;-79
2022/06/07 05:23:15;;;;;;;9.50;6.03;;;;;;;11.11;100.00;100879.03;4866049;29;20052;-78
2022/06/07 05:26:33;;;;;;;8.32;5.97;;;;;;;11.15;100.00;100880.78;4879851;29;20172;-78
2022/06/07 05:29:06;;;;;;;8.90;6.13;;;;;;;11.17;100.00;100879.06;4888186;29;20056;-78
2022/06/07 05:31:39;;;;;;;8.80;5.60;;;;;;;11.20;100.00;100886.94;4874402;29;20044;-78
2022/06/07 05:34:08;;;;;;;12.82;6.43;;;;;;;11.26;100.00;100881.66;4884228;29;20074;-78
2022/06/07 05:36:39;;;;;;;13.05;6.05;;;;;;;11.30;100.00;100880.81;4863800;29;20064;-79
2022/06/07 05:39:26;;;;;;;11.38;6.45;;;;;;;11.35;100.00;100891.38;4906768;29;20401;-79
2022/06/07 05:42:00;;;;;;;9.18;5.38;;;;;;;11.40;100.00;100888.72;4858327;29;20091;-79
2022/06/07 05:44:30;;;;;;;9.88;6.35;;;;;;;11.43;100.00;100888.72;4886708;29;20040;-78
2022/06/07 05:47:03;;;;;;;10.63;6.60;;;;;;;11.46;100.00;100879.06;4902308;29;20041;-78
2022/06/07 05:49:46;;;;;;;12.75;6.10;;;;;;;11.50;100.00;100886.09;4880469;29;20086;-79
2022/06/07 05:52:19;;;;;;;10.55;6.30;;;;;;;11.54;100.00;100891.38;4909199;29;20401;-79
2022/06/07 05:54:49;;;;;;;9.75;7.22;;;;;;;11.57;100.00;100897.53;4884357;29;20067;-79
2022/06/07 05:57:19;;;;;;;10.27;6.65;;;;;;;11.57;100.00;100896.63;4897827;29;20044;-79
2022/06/07 05:59:49;;;;;;;7.45;6.55;;;;;;;11.58;100.00;100896.63;4869745;29;20067;-79
2022/06/07 06:02:19;;;;;;;10.98;7.15;;;;;;;11.57;100.00;100894.91;4893890;29;20044;-79
2022/06/07 06:04:50;;;;;;;12.52;7.50;;;;;;;11.57;100.00;100905.47;4898429;29;20032;-78
2022/06/07 06:07:18;;;;;;;15.80;8.00;;;;;;;11.59;100.00;100908.09;4893938;29;20056;-79
2022/06/07 06:12:49;;;;;;;12.25;7.97;;;;;;;11.54;100.00;100912.50;4862545;29;20637;-80
2022/06/07 06:15:20;;;;;;;12.00;7.45;;;;;;;11.49;100.00;100913.38;4923817;29;20044;-77
2022/06/07 06:17:50;;;;;;;;;;;;;;;11.45;100.00;100923.91;4915279;29;20577;-78
2022/06/07 06:20:28;;;;;;;9.52;6.03;;;;;;;11.40;100.00;100918.66;4887593;29;20237;-77
2022/06/07 06:23:00;;;;;;;10.65;6.95;;;;;;;11.36;100.00;100931.81;4896068;29;20048;-80
2022/06/07 06:25:28;;;;;;;8.52;6.55;;;;;;;11.34;100.00;100923.88;4909910;29;20041;-79
2022/06/07 06:28:00;;;;;;;10.60;7.07;;;;;;;11.35;100.00;100930.06;4871912;29;20044;-79
2022/06/07 06:30:34;;;;;;;7.85;5.88;;;;;;;11.31;100.00;100937.97;4893377;29;20048;-79
2022/06/07 06:33:14;;;;;;;10.52;5.32;;;;;;;11.27;100.00;100933.56;4904452;29;20701;-78
2022/06/07 06:35:49;;;;;;;7.28;4.28;;;;;;;11.24;100.00;100936.19;4914094;29;20528;-78
2022/06/07 06:38:19;;;;;;;5.65;4.35;;;;;;;11.21;100.00;100927.38;4904876;29;20060;-78
2022/06/07 06:40:48;;;;;;;;;;;;;;;11.19;100.00;100942.34;4901369;29;20032;-78
2022/06/07 06:43:20;;;;;;;5.38;3.97;;;;;;;11.18;100.00;100933.56;4876254;29;19931;-78
2022/06/07 06:46:06;;;;;;;6.75;4.30;;;;;;;11.20;100.00;100936.19;4905952;29;20048;-78
2022/06/07 06:48:37;;;;;;;6.07;4.57;;;;;;;11.23;100.00;100930.94;4912101;29;20052;-78
2022/06/07 06:51:10;;;;;;;6.43;3.78;;;;;;;11.22;100.00;100923.88;4899512;29;20048;-78
2022/06/07 06:53:41;;;;;;;8.65;4.13;;;;;;;11.24;100.00;100922.13;4898422;29;20370;-78
2022/06/07 06:56:23;;;;;;;4.22;3.15;;;;;;;11.24;100.00;100932.69;4905285;29;20040;-78
2022/06/07 06:58:52;;;;;;;5.38;2.97;;;;;;;11.25;100.00;100935.31;4879442;29;20983;-80
2022/06/07 07:01:27;;;;;;;5.28;2.50;;;;;;;11.24;100.00;100935.31;4904279;29;20048;-77
2022/06/07 07:04:03;;;;;;;4.20;2.65;;;;;;;11.23;100.00;100933.56;4898928;29;20059;-77
2022/06/07 07:06:31;;;;;;;6.07;2.47;;;;;;;11.29;100.00;100936.22;4895907;29;20066;-79
2022/06/07 07:09:04;;;;;;;5.90;2.63;;;;;;;11.33;100.00;100935.34;4912058;29;20052;-79
2022/06/07 07:11:46;;;;;;;5.88;2.03;;;;;;;11.41;100.00;100937.97;4891693;29;20036;-79
2022/06/07 07:14:17;;;;;;;4.97;2.20;;;;;;;11.47;100.00;100940.63;4866177;29;20349;-78
2022/06/07 07:16:50;;;;;;;5.90;2.72;;;;;;;11.58;100.00;100938.88;4926468;29;20047;-77
2022/06/07 07:19:20;;;;;;;6.35;2.10;;;;;;;11.72;100.00;100941.53;4908281;29;20036;-79
2022/06/07 07:21:50;;;;;;;2.85;2.33;;;;;;;11.86;100.00;100941.53;4894624;29;20047;-78
2022/06/07 07:24:21;;;;;;;;;;;;;;;11.97;100.00;100931.88;4921605;29;20241;-78
2022/06/07 07:26:54;;;;;;;4.15;3.22;;;;;;;12.12;100.00;100946.81;4896256;29;19934;-79
2022/06/07 07:29:25;;;;;;;3.95;2.75;;;;;;;12.23;100.00;100954.69;4895076;29;20393;-78
2022/06/07 07:31:58;;;;;;;6.30;2.47;;;;;;;12.29;100.00;100952.06;4846381;29;20059;-78
2022/06/07 07:34:32;;;;;;;4.45;2.83;;;;;;;12.34;100.00;100952.03;4916245;28;20047;-78
2022/06/07 07:37:03;;;;;;;5.25;2.55;;;;;;;12.36;100.00;100952.91;4907707;29;20265;-78
2022/06/07 07:39:35;;;;;;;6.50;2.70;;;;;;;12.35;100.00;100962.63;4895600;29;20508;-78
2022/06/07 07:42:04;;;;;;;6.20;3.00;;;;;;;12.32;100.00;100956.44;4900415;29;20441;-79
2022/06/07 07:44:38;;;;;;;6.50;2.15;;;;;;;12.29;100.00;100968.78;4875847;29;20044;-79
2022/06/07 07:47:08;;;;;;;4.22;2.72;;;;;;;12.29;100.00;100963.50;4840899;29;20609;-79
2022/06/07 07:49:43;;;;;;;7.70;2.90;;;;;;;12.34;100.00;100971.41;4893981;29;20040;-79
2022/06/07 07:52:18;;;;;;;6.18;2.63;;;;;;;12.33;100.00;100969.66;4887170;29;20048;-80
2022/06/07 07:54:58;;;;;;;8.27;2.72;;;;;;;12.36;100.00;100969.66;4895525;29;20048;-79
2022/06/07 07:57:27;;;;;;;5.85;2.38;;;;;;;12.41;100.00;100981.09;4881354;29;20121;-79
2022/06/07 07:59:57;;;;;;;8.88;2.88;;;;;;;12.46;100.00;100970.53;4920640;29;20048;-79
2022/06/07 08:02:26;;;;;;;5.68;2.40;;;;;;;12.45;100.00;100981.97;4870708;29;20048;-79
2022/06/07 08:05:03;;;;;;;10.70;2.45;;;;;;;12.45;100.00;100974.91;4913117;29;20041;-79
2022/06/07 08:07:34;;;;;;;5.38;2.63;;;;;;;12.47;100.00;100985.47;4895961;29;20480;-79
2022/06/07 08:10:22;;;;;;;6.68;2.42;;;;;;;12.47;100.00;100988.13;4907605;29;20133;-80
2022/06/07 08:12:57;;;;;;;8.68;2.45;;;;;;;12.41;100.00;100983.72;4910394;29;20048;-79
2022/06/07 08:15:29;;;;;;;8.70;2.00;;;;;;;12.34;100.00;100992.56;4875090;29;20535;-78
2022/06/07 08:17:58;;;;;;;13.15;3.35;;;;;;;12.31;100.00;100987.28;4874536;29;20059;-78
2022/06/07 08:20:28;;;;;;;9.50;2.60;;;;;;;12.26;100.00;100994.34;4912844;29;20555;-79
2022/06/07 08:22:57;;;;;;;6.28;2.08;;;;;;;12.24;100.00;100988.19;4894779;29;20401;-79
2022/06/07 08:25:25;;;;;;;9.27;2.20;;;;;;;12.24;100.00;100991.69;4905587;28;20064;-79
2022/06/07 08:27:54;;;;;;;10.25;2.88;;;;;;;12.31;100.00;100987.28;4919403;28;20063;-79
2022/06/07 08:30:23;;;;;;;7.72;2.13;;;;;;;12.40;100.00;100986.38;4896010;29;20048;-79
2022/06/07 08:32:51;;;;;;;6.00;1.65;;;;;;;12.46;100.00;100992.53;4872580;29;20044;-79
2022/06/07 08:38:07;;;;;;;6.07;1.95;;;;;;;12.59;100.00;100982.81;4871536;29;1158780;-79
2022/06/07 08:40:42;;;;;;;5.38;1.67;;;;;;;12.71;100.00;100986.31;4898202;29;20522;-80
2022/06/07 08:43:23;;;;;;;8.07;1.88;;;;;;;12.78;100.00;100991.56;4905619;29;20533;-79
2022/06/07 08:45:54;;;;;;;8.30;1.70;;;;;;;12.88;100.00;100992.41;4895979;29;20048;-78
2022/06/07 08:48:26;;;;;;;7.25;2.10;;;;;;;13.01;100.00;100986.19;4850880;29;20040;-78
2022/06/07 08:51:15;;;;;;;5.38;2.03;;;;;;;13.11;100.00;100992.31;4898900;29;20044;-80
2022/06/07 08:53:50;;;;;;;8.25;1.83;;;;;;;13.19;100.00;100998.41;4914585;29;20281;-78
2022/06/07 08:56:22;;;;;;;4.18;1.70;;;;;;;13.25;100.00;100985.19;4919589;29;20055;-79
2022/06/07 08:58:52;;;;;;;6.32;1.80;;;;;;;13.30;100.00;100997.50;4921353;29;20487;-79
2022/06/07 09:01:41;;;;;;;9.50;1.83;;;;;;;13.38;100.00;100993.97;4899577;29;20059;-79
2022/06/07 09:04:21;;;;;;;12.20;2.28;;;;;;;13.41;100.00;101007.16;4864543;29;20051;-79
2022/06/07 09:06:56;;;;;;;8.17;2.30;;;;;;;13.42;100.00;101002.75;4908434;29;20052;-79
2022/06/07 09:12:21;;;;;;;4.70;1.98;;;;;;;13.36;100.00;101008.09;4915576;29;20429;-79
2022/06/07 09:15:12;;;;;;;7.32;2.42;;;;;;;13.33;100.00;101008.13;4898990;29;20049;-79
2022/06/07 09:17:51;;;;;;;5.40;1.73;;;;;;;13.31;100.00;101012.50;4895191;29;20494;-80
2022/06/07 09:20:24;;;;;;;6.70;2.10;;;;;;;13.26;100.00;101009.88;4869918;29;20686;-79
2022/06/07 09:23:03;;;;;;;7.47;1.95;;;;;;;13.24;100.00;101017.81;4897941;29;20040;-79
2022/06/07 09:25:37;;;;;;;12.35;2.28;;;;;;;13.24;100.00;101020.47;4913733;29;20036;-79
2022/06/07 09:28:12;;;;;;;7.60;1.77;;;;;;;13.20;100.00;101016.06;4924675;29;20066;-78
2022/06/07 09:30:45;;;;;;;5.30;1.55;;;;;;;13.21;100.00;101027.53;4891196;29;20048;-79
2022/06/07 09:33:29;;;;;;;6.13;1.55;;;;;;;13.25;100.00;101021.31;4896855;29;20489;-79
2022/06/07 09:36:30;;;;;;;8.90;1.60;;;;;;;13.24;100.00;101024.88;4873778;29;20075;-79
2022/06/07 09:39:24;;;;;;;8.05;1.95;;;;;;;13.26;100.00;101031.03;4903146;29;20049;-79
2022/06/07 09:42:16;;;;;;;5.43;1.65;;;;;;;13.23;100.00;101037.25;4888790;29;20063;-79
2022/06/07 09:44:55;;;;;;;9.85;2.38;;;;;;;13.14;100.00;101045.22;4906585;29;20245;-79
2022/06/07 09:47:26;;;;;;;7.23;1.90;;;;;;;13.01;100.00;101043.50;4906454;29;20047;-79
2022/06/07 09:50:22;;;;;;;8.32;1.70;;;;;;;12.93;100.00;101050.56;4885253;29;20061;-79
2022/06/07 09:52:57;;;;;;;6.38;1.70;;;;;;;12.88;100.00;101043.53;4854338;29;20245;-79
2022/06/07 09:55:53;;;;;;;5.80;2.10;;;;;;;12.91;100.00;101047.97;4909780;29;20059;-80
2022/06/07 09:58:43;;;;;;;4.30;1.15;;;;;;;12.90;100.00;101051.47;4902217;29;20056;-79
2022/06/07 10:01:20;;;;;;;1.55;1.13;;;;;;;12.88;100.00;101054.13;4896888;29;20037;-79
2022/06/07 10:04:07;;;;;;;1.15;0.80;;;;;;;12.90;100.00;101053.25;4895632;29;20056;-79
2022/06/07 10:06:53;;;;;;;5.22;1.52;;;;;;;12.95;100.00;101059.38;4889129;29;20052;-79
2022/06/07 10:09:43;;;;;;;3.72;1.50;;;;;;;12.97;100.00;101068.22;4875788;29;20036;-80
2022/06/07 10:12:39;;;;;;;5.70;1.13;;;;;;;13.01;100.00;101057.59;4895264;29;20070;-80
2022/06/07 10:15:27;;;;;;;4.07;1.25;;;;;;;13.08;100.00;101071.72;4905242;29;20497;-79
2022/06/07 10:18:12;;;;;;;3.47;1.23;;;;;;;13.17;100.00;101062.84;4898665;29;20060;-79
2022/06/07 10:21:20;;;;;;;2.72;0.98;;;;;;;13.29;100.00;101067.19;4886625;29;20060;-80
2022/06/07 10:23:51;;;;;;;4.63;1.30;;;;;;;13.36;100.00;101064.53;4882620;28;20056;-80
2022/06/07 10:26:48;;;;;;;5.03;1.60;;;;;;;13.43;100.00;101063.63;4903851;29;20536;-80
2022/06/07 10:29:36;;;;;;;2.78;1.23;;;;;;;13.48;100.00;101058.31;4881445;29;20040;-79
2022/06/07 10:32:30;;;;;;;4.68;1.60;;;;;;;13.58;100.00;101067.09;4906624;29;20064;-80
2022/06/07 10:35:15;;;;;;;6.95;1.77;;;;;;;13.73;100.00;101066.13;4903196;29;20036;-79
2022/06/07 10:38:30;;;;;;;5.57;1.60;;;;;;;13.81;100.00;101069.59;4904992;29;20069;-79
2022/06/07 10:41:14;;;;;;;8.10;1.80;;;;;;;13.76;100.00;101074.03;4900355;29;20040;-79
2022/06/07 10:44:05;;;;;;;11.77;2.17;;;;;;;13.76;100.00;101076.66;4899993;29;20412;-80
2022/06/07 10:46:37;;;;;;;6.97;2.03;;;;;;;13.78;100.00;101077.53;4914805;29;20585;-79
2022/06/07 10:49:12;;;;;;;10.95;2.20;;;;;;;13.77;100.00;101073.16;4904398;29;20048;-79
2022/06/07 10:52:22;;;;;;;6.88;2.05;;;;;;;13.78;100.00;101066.94;4907735;29;20052;-79
2022/06/07 10:55:19;;;;;;;11.13;2.30;;;;;;;13.85;100.00;101073.97;4875209;29;20056;-78
2022/06/07 10:58:06;;;;;;;11.63;2.65;;;;;;;13.87;100.00;101074.84;4893570;29;20060;-79
2022/06/07 11:00:53;;;;;;;6.05;1.92;;;;;;;13.81;100.00;101080.19;4897735;29;20436;-79
2022/06/07 11:03:43;;;;;;;11.18;1.98;;;;;;;13.70;100.00;101088.19;4899178;29;20055;-79
2022/06/07 11:09:22;;;;;;;6.00;1.75;;;;;;;13.54;100.00;101098.00;4876948;29;20056;-80
2022/06/07 11:12:02;;;;;;;4.20;1.60;;;;;;;13.43;100.00;101087.44;4896070;29;20508;-79
2022/06/07 11:14:54;;;;;;;7.93;1.58;;;;;;;13.39;100.00;101096.28;4871914;29;20197;-79
2022/06/07 11:17:33;;;;;;;6.80;1.67;;;;;;;13.36;100.00;101093.66;4886873;29;20064;-80
2022/06/07 11:20:14;;;;;;;3.25;1.83;;;;;;;13.45;100.00;101098.91;4907593;29;20051;-80
2022/06/07 11:23:02;;;;;;;7.32;1.70;;;;;;;13.58;100.00;101091.78;4904091;29;20037;-79
2022/06/07 11:25:38;;;;;;;6.25;1.95;;;;;;;13.68;100.00;101091.75;4860702;29;20044;-79
2022/06/07 11:28:14;;;;;;;4.10;1.60;;;;;;;13.74;100.00;101099.66;4923295;29;20044;-80
2022/06/07 11:30:45;;;;;;;7.00;1.80;;;;;;;13.83;100.00;101096.94;4890237;29;20048;-80
2022/06/07 11:33:41;;;;;;;4.60;2.05;;;;;;;13.93;100.00;101085.41;4886769;29;20079;-80
2022/06/07 11:36:20;;;;;;;9.80;1.88;;;;;;;13.99;100.00;101095.09;4885971;29;20048;-80
2022/06/07 11:38:55;;;;;;;6.15;1.90;;;;;;;14.04;100.00;101099.47;4895001;29;20056;-80
2022/06/07 11:41:38;;;;;;;7.53;1.92;;;;;;;14.08;100.00;101094.13;4887075;29;20727;-80
2022/06/07 11:44:10;;;;;;;7.03;1.67;;;;;;;14.09;100.00;101090.59;4904893;29;20056;-80
2022/06/07 11:46:59;;;;;;;7.25;1.88;;;;;;;14.18;100.00;101085.22;4896287;29;20064;-80
2022/06/07 11:50:02;;;;;;;5.75;1.65;;;;;;;14.40;100.00;101085.91;4891375;29;20174;-80
2022/06/07 11:52:33;;;;;;;8.25;1.55;;;;;;;14.53;100.00;101087.56;4905944;29;20386;-80
2022/06/07 11:55:08;;;;;;;6.47;1.30;;;;;;;14.56;100.00;101090.19;4909741;29;20074;-81
2022/06/07 11:58:00;;;;;;;7.18;1.90;;;;;;;14.56;100.00;101090.19;4884716;29;20070;-81
2022/06/07 12:00:29;;;;;;;4.15;1.90;;;;;;;14.59;100.00;101094.59;4895168;29;20643;-80
2022/06/07 12:03:01;;;;;;;10.02;1.83;;;;;;;14.59;100.00;101097.25;4896978;29;20040;-80
2022/06/07 12:05:42;;;;;;;5.10;1.23;;;;;;;14.60;100.00;101099.03;4906916;29;20752;-80
2022/06/07 12:08:37;;;;;;;4.13;1.30;;;;;;;14.56;100.00;101089.31;4910116;29;20052;-80
2022/06/07 12:11:20;;;;;;;6.07;1.83;;;;;;;14.58;100.00;101106.13;4907790;29;20557;-82